createdAt,value
2022-10-03T00:02:11.564Z,7.00
2022-10-03T00:04:51.234Z,7.00
2022-10-03T00:07:21.438Z,7.00
2022-10-03T00:09:48.724Z,6.90
2022-10-03T00:12:35.027Z,6.90
2022-10-03T00:15:05.299Z,6.90
2022-10-03T00:17:45.779Z,6.90
2022-10-03T00:20:19.028Z,6.90
2022-10-03T00:22:53.297Z,6.90
2022-10-03T00:25:23.702Z,6.80
2022-10-03T00:28:04.599Z,6.80
2022-10-03T00:30:44.807Z,6.80
2022-10-03T00:33:21.885Z,6.80
2022-10-03T00:35:49.552Z,6.80
2022-10-03T00:38:29.097Z,6.80
2022-10-03T00:41:15.374Z,6.70
2022-10-03T00:43:50.428Z,6.70
2022-10-03T00:46:17.822Z,6.70
2022-10-03T00:48:48.006Z,6.70
2022-10-03T00:51:22.835Z,6.70
2022-10-03T00:53:56.151Z,6.60
2022-10-03T00:56:36.399Z,6.60
2022-10-03T00:59:16.007Z,6.60
2022-10-03T01:01:47.406Z,6.60
2022-10-03T01:04:14.798Z,6.60
2022-10-03T01:07:01.145Z,6.60
2022-10-03T01:09:47.029Z,6.60
2022-10-03T01:12:23.553Z,6.60
2022-10-03T01:15:09.492Z,6.60
2022-10-03T01:17:36.926Z,6.60
2022-10-03T01:20:22.551Z,6.50
2022-10-03T01:23:04.947Z,6.50
2022-10-03T01:25:32.322Z,6.50
2022-10-03T01:28:23.772Z,6.50
2022-10-03T01:30:56.924Z,6.40
2022-10-03T01:33:27.995Z,6.40
2022-10-03T01:35:55.473Z,6.40
2022-10-03T01:38:43.034Z,6.40
2022-10-03T01:41:13.452Z,6.30
2022-10-03T01:43:46.627Z,6.30
2022-10-03T01:46:26.573Z,6.30
2022-10-03T01:49:11.706Z,6.30
2022-10-03T01:52:01.164Z,6.30
2022-10-03T01:54:29.574Z,6.30
2022-10-03T01:57:00.663Z,6.20
2022-10-03T01:59:41.575Z,6.20
2022-10-03T02:02:21.104Z,6.30
2022-10-03T02:04:53.016Z,6.20
2022-10-03T02:07:23.236Z,6.20
2022-10-03T02:09:56.753Z,6.20
2022-10-03T02:12:30.247Z,6.20
2022-10-03T02:15:14.383Z,6.20
2022-10-03T02:17:55.146Z,6.10
2022-10-03T02:20:32.336Z,6.10
2022-10-03T02:23:00.401Z,6.10
2022-10-03T02:25:36.998Z,6.10
2022-10-03T02:28:13.422Z,6.00
2022-10-03T02:30:47.758Z,6.00
2022-10-03T02:33:33.856Z,6.00
2022-10-03T02:36:07.706Z,6.00
2022-10-03T02:38:41.306Z,5.90
2022-10-03T02:41:18.862Z,5.90
2022-10-03T02:44:12.436Z,5.90
2022-10-03T02:46:59.135Z,5.80
2022-10-03T02:49:45.416Z,5.80
2022-10-03T02:52:27.386Z,5.80
2022-10-03T02:55:06.993Z,5.80
2022-10-03T02:57:37.403Z,5.80
2022-10-03T03:00:04.811Z,5.70
2022-10-03T03:02:48.045Z,5.70
2022-10-03T03:05:24.491Z,5.80
2022-10-03T03:08:10.383Z,5.80
2022-10-03T03:10:48.729Z,5.80
2022-10-03T03:13:26.146Z,5.80
2022-10-03T03:16:08.553Z,5.80
2022-10-03T03:18:38.698Z,5.80
2022-10-03T03:21:35.109Z,5.80
2022-10-03T03:24:20.967Z,5.80
2022-10-03T03:27:06.947Z,5.80
2022-10-03T03:29:37.474Z,5.80
2022-10-03T03:32:20.002Z,5.80
2022-10-03T03:34:56.342Z,5.80
2022-10-03T03:37:32.802Z,5.80
2022-10-03T03:40:12.173Z,5.80
2022-10-03T03:42:42.233Z,5.80
2022-10-03T03:45:44.904Z,5.80
2022-10-03T03:48:30.385Z,5.80
2022-10-03T03:51:11.532Z,5.80
2022-10-03T03:53:45.112Z,5.80
2022-10-03T03:56:28.313Z,5.80
2022-10-03T03:58:58.739Z,5.80
2022-10-03T04:01:29.201Z,5.80
2022-10-03T04:04:15.700Z,5.80
2022-10-03T04:07:09.439Z,5.90
2022-10-03T04:09:45.966Z,5.80
2022-10-03T04:12:13.365Z,5.90
2022-10-03T04:14:59.470Z,5.90
2022-10-03T04:17:45.304Z,5.80
2022-10-03T04:20:15.616Z,5.80
2022-10-03T04:22:49.279Z,5.80
2022-10-03T04:25:24.392Z,5.80
2022-10-03T04:28:12.002Z,5.80
2022-10-03T04:30:45.871Z,5.80
2022-10-03T04:33:19.563Z,5.80
2022-10-03T04:36:06.692Z,5.80
2022-10-03T04:38:53.099Z,5.80
2022-10-03T04:41:27.720Z,5.80
2022-10-03T04:44:00.386Z,5.80
2022-10-03T04:46:27.910Z,5.80
2022-10-03T04:48:57.986Z,5.80
2022-10-03T04:51:25.301Z,5.90
2022-10-03T04:54:02.283Z,5.90
2022-10-03T04:56:39.037Z,5.90
2022-10-03T04:59:09.171Z,5.90
2022-10-03T05:01:39.517Z,6.00
2022-10-03T05:04:23.570Z,5.90
2022-10-03T05:07:09.652Z,6.00
2022-10-03T05:09:55.010Z,6.00
2022-10-03T05:12:38.166Z,6.00
2022-10-03T05:15:14.937Z,6.00
2022-10-03T05:17:42.477Z,6.00
2022-10-03T05:20:15.573Z,6.00
2022-10-03T05:22:45.713Z,5.90
2022-10-03T05:25:39.072Z,5.90
2022-10-03T05:28:26.846Z,5.90
2022-10-03T05:31:13.275Z,5.90
2022-10-03T05:33:44.709Z,5.90
2022-10-03T05:36:28.825Z,6.00
2022-10-03T05:39:15.097Z,6.00
2022-10-03T05:42:10.975Z,6.00
2022-10-03T05:44:43.911Z,6.10
2022-10-03T05:47:33.176Z,6.10
2022-10-03T05:50:19.378Z,6.10
2022-10-03T05:52:46.746Z,6.10
2022-10-03T05:55:13.997Z,6.10
2022-10-03T05:57:44.384Z,6.20
2022-10-03T06:00:14.811Z,6.20
2022-10-03T06:02:54.078Z,6.20
2022-10-03T06:05:25.366Z,6.20
2022-10-03T06:07:52.817Z,6.30
2022-10-03T06:10:39.013Z,6.30
2022-10-03T06:13:09.263Z,6.30
2022-10-03T06:15:54.714Z,6.40
2022-10-03T06:18:23.120Z,6.40
2022-10-03T06:20:59.606Z,6.40
2022-10-03T06:23:48.069Z,6.40
2022-10-03T06:26:28.915Z,6.40
2022-10-03T06:28:56.368Z,6.50
2022-10-03T06:31:32.179Z,6.40
2022-10-03T06:34:20.027Z,5.50
2022-10-03T06:37:01.166Z,6.50
2022-10-03T06:39:31.690Z,6.50
2022-10-03T06:42:12.433Z,6.50
2022-10-03T06:44:42.968Z,6.50
2022-10-03T06:47:27.173Z,6.50
2022-10-03T06:50:13.508Z,6.50
2022-10-03T06:52:40.928Z,6.60
2022-10-03T06:55:27.883Z,6.60
2022-10-03T06:58:04.765Z,6.60
2022-10-03T07:00:32.174Z,6.60
2022-10-03T07:03:02.384Z,6.60
2022-10-03T07:05:38.643Z,6.60
2022-10-03T07:08:20.337Z,6.70
2022-10-03T07:10:56.803Z,6.70
2022-10-03T07:13:42.936Z,6.70
2022-10-03T07:16:27.287Z,6.80
2022-10-03T07:18:55.314Z,6.80
2022-10-03T07:21:36.475Z,6.80
2022-10-03T07:24:07.229Z,6.80
2022-10-03T07:26:43.604Z,6.80
2022-10-03T07:29:29.803Z,6.80
2022-10-03T07:32:15.784Z,8.30
2022-10-03T07:35:01.583Z,6.90
2022-10-03T07:38:04.249Z,6.90
2022-10-03T07:40:40.657Z,7.00
2022-10-03T07:43:15.730Z,7.10
2022-10-03T07:46:04.264Z,7.20
2022-10-03T07:48:34.884Z,7.30
2022-10-03T07:51:18.932Z,7.40
2022-10-03T07:54:04.606Z,7.50
2022-10-03T07:56:43.632Z,7.60
2022-10-03T07:59:11.120Z,7.70
2022-10-03T08:01:56.113Z,7.90
2022-10-03T08:04:38.471Z,8.00
2022-10-03T08:07:06.101Z,8.10
2022-10-03T08:09:42.338Z,8.30
2022-10-03T08:12:28.265Z,8.50
2022-10-03T08:14:58.360Z,8.70
2022-10-03T08:17:44.170Z,8.80
2022-10-03T08:20:17.596Z,9.00
2022-10-03T08:23:00.412Z,9.10
2022-10-03T08:25:31.170Z,9.20
2022-10-03T08:28:04.911Z,9.40
2022-10-03T08:30:52.622Z,9.60
2022-10-03T08:33:33.808Z,9.70
2022-10-03T08:36:07.268Z,10.00
2022-10-03T08:38:48.357Z,10.20
2022-10-03T08:41:39.422Z,10.30
2022-10-03T08:44:06.925Z,10.40
2022-10-03T08:46:40.543Z,10.50
2022-10-03T08:49:07.913Z,10.60
2022-10-03T08:51:59.095Z,10.60
2022-10-03T08:54:45.248Z,10.70
2022-10-03T08:57:12.595Z,10.90
2022-10-03T09:00:02.255Z,11.00
2022-10-03T09:02:34.425Z,11.20
2022-10-03T09:05:04.915Z,11.30
2022-10-03T09:07:44.623Z,11.50
2022-10-03T09:10:24.217Z,11.60
2022-10-03T09:13:10.225Z,11.80
2022-10-03T09:15:53.497Z,11.90
2022-10-03T09:18:22.862Z,12.00
2022-10-03T09:20:53.343Z,12.10
2022-10-03T09:23:39.556Z,12.20
2022-10-03T09:26:30.362Z,12.20
2022-10-03T09:28:57.768Z,12.30
2022-10-03T09:31:36.964Z,12.40
2022-10-03T09:34:07.373Z,12.40
2022-10-03T09:36:50.752Z,12.50
2022-10-03T09:39:44.573Z,12.60
2022-10-03T09:42:26.007Z,12.70
2022-10-03T09:44:56.495Z,12.80
2022-10-03T09:47:42.655Z,12.90
2022-10-03T09:50:25.573Z,13.10
2022-10-03T09:53:08.322Z,13.20
2022-10-03T09:55:54.624Z,13.30
2022-10-03T09:58:37.849Z,13.30
2022-10-03T10:01:24.088Z,13.40
2022-10-03T10:04:10.364Z,13.50
2022-10-03T10:06:38.043Z,13.60
2022-10-03T10:09:17.678Z,13.60
2022-10-03T10:12:04.199Z,13.70
2022-10-03T10:14:37.411Z,13.70
2022-10-03T10:17:19.975Z,13.80
2022-10-03T10:19:51.902Z,13.80
2022-10-03T10:22:22.531Z,13.80
2022-10-03T10:24:56.078Z,13.90
2022-10-03T10:27:23.529Z,13.90
2022-10-03T10:30:00.260Z,14.00
2022-10-03T10:32:57.211Z,14.10
2022-10-03T10:35:33.634Z,14.20
2022-10-03T10:38:19.570Z,14.40
2022-10-03T10:41:05.619Z,14.60
2022-10-03T10:43:44.794Z,14.80
2022-10-03T10:46:27.561Z,15.00
2022-10-03T10:49:02.835Z,15.20
2022-10-03T10:51:49.900Z,15.40
2022-10-03T10:54:33.286Z,15.50
2022-10-03T10:57:07.981Z,15.50
2022-10-03T10:59:54.106Z,15.60
2022-10-03T11:02:39.970Z,15.60
2022-10-03T11:05:26.033Z,15.60
2022-10-03T11:07:56.221Z,15.60
2022-10-03T11:10:52.437Z,15.70
2022-10-03T11:13:20.312Z,15.80
2022-10-03T11:16:00.051Z,15.90
2022-10-03T11:18:46.089Z,16.00
2022-10-03T11:21:33.272Z,16.10
2022-10-03T11:24:06.932Z,16.20
2022-10-03T11:26:53.166Z,16.30
2022-10-03T11:29:41.017Z,16.30
2022-10-03T11:32:20.493Z,16.30
2022-10-03T11:35:06.797Z,16.20
2022-10-03T11:37:40.302Z,16.20
2022-10-03T11:40:21.840Z,16.30
2022-10-03T11:43:01.106Z,16.40
2022-10-03T11:45:37.807Z,16.50
2022-10-03T11:48:09.166Z,16.70
2022-10-03T11:50:58.272Z,17.10
2022-10-03T11:53:41.059Z,17.20
2022-10-03T11:56:12.672Z,17.50
2022-10-03T11:58:53.249Z,17.80
2022-10-03T12:01:28.287Z,17.90
2022-10-03T12:04:16.014Z,18.00
2022-10-03T12:07:05.068Z,18.20
2022-10-03T12:09:45.537Z,18.30
2022-10-03T12:12:22.144Z,18.50
2022-10-03T12:14:51.101Z,18.70
2022-10-03T12:17:38.674Z,19.10
2022-10-03T12:20:27.984Z,19.10
2022-10-03T12:23:18.644Z,19.30
2022-10-03T12:25:46.091Z,19.70
2022-10-03T12:28:21.032Z,20.00
2022-10-03T12:30:48.493Z,20.30
2022-10-03T12:33:40.220Z,20.70
2022-10-03T12:36:43.161Z,20.90
2022-10-03T12:39:25.625Z,21.00
2022-10-03T12:42:11.754Z,20.90
2022-10-03T12:44:42.098Z,20.60
2022-10-03T12:47:10.814Z,20.20
2022-10-03T12:49:38.289Z,19.80
2022-10-03T12:52:25.915Z,19.50
2022-10-03T12:54:59.482Z,19.30
2022-10-03T12:57:26.960Z,19.10
2022-10-03T13:00:02.189Z,18.80
2022-10-03T13:02:40.857Z,18.60
2022-10-03T13:05:18.273Z,18.50
2022-10-03T13:08:02.371Z,18.30
2022-10-03T13:10:42.575Z,18.20
2022-10-03T13:13:13.536Z,18.20
2022-10-03T13:15:41.180Z,18.10
2022-10-03T13:18:09.896Z,17.90
2022-10-03T13:20:42.416Z,17.90
2022-10-03T13:23:28.252Z,17.80
2022-10-03T13:26:00.217Z,17.60
2022-10-03T13:28:35.879Z,17.40
2022-10-03T13:31:06.414Z,17.20
2022-10-03T13:33:36.388Z,17.20
2022-10-03T13:36:14.892Z,17.20
2022-10-03T13:39:01.076Z,17.20
2022-10-03T13:41:47.187Z,17.30
2022-10-03T13:44:23.782Z,17.40
2022-10-03T13:46:53.575Z,17.50
2022-10-03T13:49:34.380Z,17.70
2022-10-03T13:52:07.500Z,17.80
2022-10-03T13:54:50.496Z,17.80
2022-10-03T13:57:23.846Z,17.80
2022-10-03T13:59:56.949Z,17.90
2022-10-03T14:02:36.297Z,17.80
2022-10-03T14:05:07.461Z,17.80
2022-10-03T14:07:34.865Z,17.60
2022-10-03T14:10:08.058Z,17.50
2022-10-03T14:12:54.939Z,17.40
2022-10-03T14:15:23.043Z,17.40
2022-10-03T14:17:59.110Z,17.30
2022-10-03T14:20:37.088Z,17.10
2022-10-03T14:23:23.010Z,17.10
2022-10-03T14:25:53.528Z,17.00
2022-10-03T14:28:39.565Z,16.90
2022-10-03T14:31:07.563Z,16.90
2022-10-03T14:33:47.445Z,16.90
2022-10-03T14:36:33.411Z,16.90
2022-10-03T14:39:07.545Z,16.80
2022-10-03T14:41:41.383Z,16.80
2022-10-03T14:44:14.888Z,16.80
2022-10-03T14:46:46.468Z,16.70
2022-10-03T14:52:26.252Z,16.70
2022-10-03T14:54:58.116Z,16.70
2022-10-03T14:58:08.767Z,16.70
2022-10-03T15:00:46.015Z,16.70
2022-10-03T15:03:20.428Z,16.80
2022-10-03T15:05:56.880Z,16.70
2022-10-03T15:08:25.335Z,16.80
2022-10-03T15:10:54.436Z,16.70
2022-10-03T15:13:22.929Z,16.80
2022-10-03T15:15:52.452Z,16.80
2022-10-03T15:18:22.052Z,16.80
2022-10-03T15:20:51.851Z,16.80
2022-10-03T15:23:21.089Z,16.80
2022-10-03T15:25:53.316Z,16.80
2022-10-03T15:28:22.620Z,16.90
2022-10-03T15:30:51.736Z,16.90
2022-10-03T15:33:35.214Z,16.90
2022-10-03T15:36:22.963Z,17.00
2022-10-03T15:38:52.593Z,17.00
2022-10-03T15:41:28.367Z,17.00
2022-10-03T15:43:56.995Z,17.00
2022-10-03T15:46:44.310Z,16.90
2022-10-03T15:49:30.519Z,16.90
2022-10-03T15:51:59.038Z,16.80
2022-10-03T15:54:29.947Z,16.70
2022-10-03T15:56:58.981Z,16.70
2022-10-03T15:59:29.799Z,16.60
2022-10-03T16:01:58.759Z,16.60
2022-10-03T16:04:29.707Z,16.60
2022-10-03T16:06:57.899Z,16.60
2022-10-03T16:09:28.983Z,16.50
2022-10-03T16:12:05.744Z,16.50
2022-10-03T16:14:33.172Z,16.50
2022-10-03T16:17:01.514Z,16.50
2022-10-03T16:19:38.265Z,16.50
2022-10-03T16:22:31.897Z,16.50
2022-10-03T16:25:11.039Z,16.50
2022-10-03T16:27:41.618Z,16.50
2022-10-03T16:30:11.947Z,16.50
2022-10-03T16:32:46.513Z,16.50
2022-10-03T16:35:29.346Z,16.50
2022-10-03T16:37:56.923Z,16.40
2022-10-03T16:40:26.923Z,16.40
2022-10-03T16:42:56.851Z,16.40
2022-10-03T16:45:27.294Z,16.30
2022-10-03T16:48:14.648Z,16.30
2022-10-03T16:50:49.782Z,16.20
2022-10-03T16:53:18.143Z,16.10
2022-10-03T16:55:47.752Z,15.90
2022-10-03T16:58:27.357Z,15.90
2022-10-03T17:01:25.386Z,15.90
2022-10-03T17:03:53.109Z,15.80
2022-10-03T17:06:40.912Z,15.70
2022-10-03T17:09:17.519Z,15.60
2022-10-03T17:11:48.163Z,15.60
2022-10-03T17:14:17.219Z,15.50
2022-10-03T17:16:56.707Z,15.50
2022-10-03T17:19:39.586Z,15.50
2022-10-03T17:22:13.710Z,15.40
2022-10-03T17:25:17.420Z,15.30
2022-10-03T17:27:49.675Z,15.20
2022-10-03T17:30:19.872Z,15.20
2022-10-03T17:32:53.569Z,15.10
2022-10-03T17:35:36.253Z,15.00
2022-10-03T17:38:37.211Z,15.00
2022-10-03T17:41:14.628Z,14.90
2022-10-03T17:43:48.039Z,14.80
2022-10-03T17:46:18.443Z,14.80
2022-10-03T17:48:51.867Z,14.70
2022-10-03T17:51:38.630Z,14.50
2022-10-03T17:54:11.187Z,14.50
2022-10-03T17:56:42.114Z,14.20
2022-10-03T17:59:19.878Z,14.30
2022-10-03T18:01:58.168Z,14.30
2022-10-03T18:04:31.085Z,14.20
2022-10-03T18:07:11.777Z,14.10
2022-10-03T18:09:43.604Z,14.60
2022-10-03T18:12:31.200Z,14.00
2022-10-03T18:15:17.349Z,13.90
2022-10-03T18:18:03.153Z,13.90
2022-10-03T18:20:40.099Z,13.90
2022-10-03T18:23:11.226Z,13.90
2022-10-03T18:26:19.055Z,13.80
2022-10-03T18:29:05.815Z,13.70
2022-10-03T18:31:35.246Z,13.70
2022-10-03T18:34:09.212Z,13.20
2022-10-03T18:36:45.774Z,13.50
2022-10-03T18:39:15.010Z,13.50
2022-10-03T18:41:45.095Z,13.40
2022-10-03T18:44:20.265Z,13.40
2022-10-03T18:46:52.833Z,13.30
2022-10-03T18:49:33.309Z,13.20
2022-10-03T18:52:04.044Z,13.10
2022-10-03T18:54:37.803Z,13.00
2022-10-03T18:57:17.472Z,13.00
2022-10-03T18:59:50.043Z,12.90
2022-10-03T19:02:26.281Z,12.80
2022-10-03T19:05:07.670Z,12.70
2022-10-03T19:07:37.986Z,12.60
2022-10-03T19:10:15.045Z,12.60
2022-10-03T19:12:45.652Z,12.50
2022-10-03T19:15:12.949Z,12.40
2022-10-03T19:17:48.620Z,12.30
2022-10-03T19:20:16.415Z,12.30
2022-10-03T19:22:56.113Z,12.20
2022-10-03T19:25:24.202Z,12.10
2022-10-03T19:27:54.462Z,12.00
2022-10-03T19:30:25.366Z,11.90
2022-10-03T19:33:04.234Z,11.90
2022-10-03T19:35:32.859Z,11.80
2022-10-03T19:38:02.388Z,11.70
2022-10-03T19:40:29.742Z,11.70
2022-10-03T19:43:01.788Z,11.70
2022-10-03T19:45:29.606Z,11.60
2022-10-03T19:47:58.666Z,11.60
2022-10-03T19:50:32.005Z,11.50
2022-10-03T19:52:59.879Z,11.50
2022-10-03T19:55:32.521Z,11.50
2022-10-03T19:58:01.836Z,11.50
2022-10-03T20:00:31.191Z,11.50
2022-10-03T20:03:06.099Z,11.50
2022-10-03T20:06:10.895Z,11.60
2022-10-03T20:08:50.358Z,11.70
2022-10-03T20:11:33.105Z,11.80
2022-10-03T20:14:01.625Z,11.80
2022-10-03T20:16:33.393Z,12.00
2022-10-03T20:19:08.809Z,12.20
2022-10-03T20:21:36.590Z,12.20
2022-10-03T20:24:17.109Z,12.40
2022-10-03T20:26:48.428Z,12.40
2022-10-03T20:29:20.402Z,12.40
2022-10-03T20:31:47.971Z,12.40
2022-10-03T20:34:21.209Z,12.50
2022-10-03T20:36:51.607Z,12.50
2022-10-03T20:39:30.234Z,12.50
2022-10-03T20:42:02.215Z,12.50
2022-10-03T20:44:48.423Z,12.50
2022-10-03T20:47:25.032Z,12.50
2022-10-03T20:50:00.408Z,12.40
2022-10-03T20:52:27.921Z,12.40
2022-10-03T20:54:59.375Z,12.40
2022-10-03T20:57:29.737Z,12.40
2022-10-03T21:00:12.262Z,12.40
2022-10-03T21:02:52.854Z,12.40
2022-10-03T21:05:23.384Z,12.40
2022-10-03T21:07:54.235Z,12.40
2022-10-03T21:10:21.781Z,12.40
2022-10-03T21:12:52.098Z,12.40
2022-10-03T21:15:38.452Z,12.50
2022-10-03T21:18:06.095Z,12.50
2022-10-03T21:20:38.099Z,12.50
2022-10-03T21:23:17.976Z,12.50
2022-10-03T21:25:45.633Z,12.40
2022-10-03T21:28:32.455Z,12.50
2022-10-03T21:31:09.302Z,12.50
2022-10-03T21:33:56.999Z,12.50
2022-10-03T21:36:36.645Z,12.50
2022-10-03T21:39:13.931Z,12.50
2022-10-03T21:41:47.584Z,12.50
2022-10-03T21:44:28.914Z,12.50
2022-10-03T21:46:59.434Z,12.50
2022-10-03T21:49:39.266Z,12.50
2022-10-03T21:52:09.651Z,12.40
2022-10-03T21:54:37.207Z,12.40
2022-10-03T21:57:16.854Z,12.40
2022-10-03T21:59:58.859Z,12.40
2022-10-03T22:02:26.375Z,12.40
2022-10-03T22:04:59.773Z,12.40
2022-10-03T22:07:27.185Z,12.40
2022-10-03T22:09:58.261Z,12.40
2022-10-03T22:12:27.854Z,12.40
2022-10-03T22:15:15.539Z,12.30
2022-10-03T22:17:50.675Z,12.30
2022-10-03T22:20:23.329Z,12.30
2022-10-03T22:22:50.781Z,12.40
2022-10-03T22:25:39.311Z,12.40
2022-10-03T22:28:25.753Z,12.50
2022-10-03T22:31:02.868Z,12.50
2022-10-03T22:33:30.391Z,12.50
2022-10-03T22:36:01.969Z,12.50
2022-10-03T22:38:31.277Z,12.50
2022-10-03T22:41:03.149Z,12.50
2022-10-03T22:43:30.903Z,12.60
2022-10-03T22:45:58.780Z,12.60
2022-10-03T22:48:30.721Z,12.70
2022-10-03T22:50:58.981Z,12.80
2022-10-03T22:53:29.357Z,12.80
2022-10-03T22:55:58.624Z,12.80
2022-10-03T22:58:27.208Z,12.80
2022-10-03T23:00:56.412Z,12.90
2022-10-03T23:03:26.936Z,13.00
2022-10-03T23:06:13.173Z,13.00
2022-10-03T23:08:40.589Z,13.00
2022-10-03T23:11:13.915Z,13.00
2022-10-03T23:13:42.265Z,13.10
2022-10-03T23:16:15.594Z,13.10
2022-10-03T23:19:04.419Z,13.10
2022-10-03T23:21:32.192Z,13.10
2022-10-03T23:24:11.410Z,13.10
2022-10-03T23:26:51.262Z,13.10
2022-10-03T23:29:20.094Z,13.10
2022-10-03T23:31:55.017Z,13.10
2022-10-03T23:34:40.263Z,13.10
2022-10-03T23:37:13.906Z,13.00
2022-10-03T23:39:42.701Z,13.00
2022-10-03T23:42:24.016Z,13.00
2022-10-03T23:45:10.388Z,13.00
2022-10-03T23:47:42.756Z,12.90
2022-10-03T23:50:17.096Z,12.90
2022-10-03T23:52:47.041Z,12.90
2022-10-03T23:55:23.359Z,12.90
2022-10-03T23:57:50.838Z,12.90
